This is the latest recevied weather packets stored in our database for station/object EFTP. If no packets are shown the sender has not sent any weather packets the latest 10 day(s).
| Time | Temp. | Humidity | Pressure | Rain* | Wind** | Luminosity | Snow |
|---|---|---|---|---|---|---|---|
| 1777307201 | 5.56° C | 35% | 1016.6 hPa | - | - | - | - |
| 1777306001 | 5.56° C | 39% | 1016.6 hPa | - | - | - | - |
| 1777304801 | 5.56° C | 38% | 1016.3 hPa | - | - | - | - |
| 1777303601 | 6.11° C | 38% | 1016.1 hPa | - | - | - | - |
| 1777302401 | 6.11° C | 42% | 1016 hPa | - | - | - | - |
| 1777301201 | 5.56° C | 50% | 1016.1 hPa | - | - | - | - |
| 1777300001 | 3.89° C | 63% | 1016.4 hPa | - | - | - | - |
| 1777298800 | 5.56° C | 47% | 1016 hPa | - | - | - | - |
| 1777297600 | 3.89° C | 61% | 1016.3 hPa | - | - | - | - |
| 1777296400 | 5.56° C | 49% | 1015.9 hPa | - | - | - | - |
| 1777295200 | 3.89° C | 61% | 1016.2 hPa | - | - | - | - |
| 1777294000 | 4.44° C | 52% | 1015.9 hPa | - | - | - | - |
| 1777292800 | 4.44° C | 52% | 1015.7 hPa | - | - | - | - |
| 1777291600 | 6.11° C | 37% | 1015.4 hPa | - | - | - | - |
| 1777290400 | 5.56° C | 39% | 1015.5 hPa | - | - | - | - |
| 1777289201 | 5.56° C | 42% | 1015.3 hPa | - | - | - | - |
| 1777288000 | 6.67° C | 36% | 1015.1 hPa | - | - | - | - |
| 1777286800 | 6.11° C | 40% | 1015.4 hPa | - | - | - | - |
| 1777285600 | 6.11° C | 37% | 1015.5 hPa | - | - | - | - |
| 1777284400 | 5° C | 42% | 1015.7 hPa | - | - | - | - |
| 1777283200 | 5.56° C | 41% | 1015.5 hPa | - | - | - | - |
| 1777281999 | 5° C | 47% | 1015.5 hPa | - | - | - | - |
| 1777280800 | 5.56° C | 41% | 1015.4 hPa | - | - | - | - |
| 1777279599 | 5.56° C | 44% | 1015.5 hPa | - | - | - | - |
| 1777278400 | 5.56° C | 44% | 1015.4 hPa | - | - | - | - |
* Rain since midnight (hover to see other rain measurements)
** Current wind speed in m/s (hover to see current wind gust speed)